createdAt,value
2019-03-09T00:00:52.360Z,75.81
2019-03-09T00:03:24.156Z,75.71
2019-03-09T00:05:55.924Z,75.56
2019-03-09T00:08:27.738Z,75.97
2019-03-09T00:10:59.434Z,76.22
2019-03-09T00:13:31.282Z,76.34
2019-03-09T00:16:03.134Z,76.57
2019-03-09T00:18:35.010Z,76.98
2019-03-09T00:21:07.079Z,77.37
2019-03-09T00:23:56.709Z,77.41
2019-03-09T00:26:50.178Z,77.79
2019-03-09T00:29:30.501Z,77.63
2019-03-09T00:32:05.451Z,77.98
2019-03-09T00:34:37.160Z,77.87
2019-03-09T00:37:08.925Z,78.17
2019-03-09T00:39:40.662Z,78.37
2019-03-09T00:42:12.381Z,78.64
2019-03-09T00:44:44.098Z,78.20
2019-03-09T00:47:15.845Z,77.15
2019-03-09T00:49:47.516Z,76.63
2019-03-09T00:52:19.316Z,76.59
2019-03-09T00:54:51.018Z,75.77
2019-03-09T00:57:22.918Z,75.70
2019-03-09T00:59:58.695Z,75.26
2019-03-09T01:02:30.473Z,75.32
2019-03-09T01:05:02.257Z,75.24
2019-03-09T01:07:34.102Z,75.29
2019-03-09T01:10:07.451Z,75.64
2019-03-09T01:12:39.497Z,75.51
2019-03-09T01:15:11.456Z,75.87
2019-03-09T01:17:43.429Z,76.19
2019-03-09T01:20:16.504Z,75.75
2019-03-09T01:22:48.231Z,75.37
2019-03-09T01:25:20.041Z,75.91
2019-03-09T01:27:51.906Z,76.01
2019-03-09T01:30:24.143Z,75.51
2019-03-09T01:32:56.273Z,75.44
2019-03-09T01:35:28.388Z,75.12
2019-03-09T01:38:00.168Z,75.87
2019-03-09T01:40:31.946Z,76.03
2019-03-09T01:43:03.738Z,76.20
2019-03-09T01:45:35.506Z,75.94
2019-03-09T01:48:07.225Z,76.56
2019-03-09T01:50:40.186Z,76.56
2019-03-09T01:53:11.918Z,76.54
2019-03-09T01:55:43.689Z,77.08
2019-03-09T01:58:15.485Z,77.41
2019-03-09T02:00:47.259Z,77.00
2019-03-09T02:03:19.226Z,77.66
2019-03-09T02:05:50.939Z,77.75
2019-03-09T02:08:22.806Z,78.08
2019-03-09T02:10:54.587Z,78.03
2019-03-09T02:13:26.390Z,77.80
2019-03-09T02:15:58.099Z,77.97
2019-03-09T02:18:29.898Z,78.40
2019-03-09T02:21:01.685Z,78.40
2019-03-09T02:23:33.412Z,78.35
2019-03-09T02:26:05.286Z,78.16
2019-03-09T02:28:37.006Z,77.76
2019-03-09T02:31:08.734Z,78.00
2019-03-09T02:33:40.979Z,77.97
2019-03-09T02:36:12.950Z,77.73
2019-03-09T02:39:18.752Z,78.15
2019-03-09T02:41:50.468Z,78.19
2019-03-09T02:44:22.440Z,78.04
2019-03-09T02:46:54.212Z,78.61
2019-03-09T02:49:25.924Z,79.39
2019-03-09T02:51:57.711Z,79.88
2019-03-09T02:54:29.511Z,78.90
2019-03-09T02:57:01.293Z,78.65
2019-03-09T02:59:33.103Z,78.03
2019-03-09T03:02:22.792Z,77.85
2019-03-09T03:04:54.501Z,77.61
2019-03-09T03:07:26.307Z,77.53
2019-03-09T03:09:58.030Z,77.50
2019-03-09T03:12:30.000Z,77.32
2019-03-09T03:15:01.708Z,77.30
2019-03-09T03:17:33.495Z,77.23
2019-03-09T03:20:05.560Z,77.65
2019-03-09T03:22:37.335Z,77.62
2019-03-09T03:25:09.354Z,77.18
2019-03-09T03:27:41.064Z,77.32
2019-03-09T03:30:12.941Z,77.47
2019-03-09T03:32:44.661Z,77.39
2019-03-09T03:35:16.451Z,77.53
2019-03-09T03:37:48.159Z,77.91
2019-03-09T03:40:19.879Z,77.74
2019-03-09T03:42:51.689Z,78.29
2019-03-09T03:45:23.556Z,78.38
2019-03-09T03:47:55.373Z,78.09
2019-03-09T03:50:27.130Z,78.15
2019-03-09T03:52:58.942Z,78.40
2019-03-09T03:55:30.868Z,78.24
2019-03-09T03:58:03.215Z,78.27
2019-03-09T04:00:35.108Z,78.25
2019-03-09T04:03:07.519Z,78.50
2019-03-09T04:05:39.784Z,78.34
2019-03-09T04:08:11.964Z,78.43
2019-03-09T04:10:43.872Z,78.17
2019-03-09T04:13:15.607Z,78.28
2019-03-09T04:15:47.428Z,78.17
2019-03-09T04:18:19.320Z,77.78
2019-03-09T04:20:51.403Z,78.19
2019-03-09T04:23:23.499Z,77.40
2019-03-09T04:25:55.258Z,77.98
2019-03-09T04:28:27.152Z,77.53
2019-03-09T04:30:58.996Z,77.24
2019-03-09T04:33:30.874Z,77.78
2019-03-09T04:36:02.629Z,77.39
2019-03-09T04:38:34.631Z,77.16
2019-03-09T04:41:06.377Z,77.56
2019-03-09T04:43:38.112Z,77.33
2019-03-09T04:46:11.220Z,77.28
2019-03-09T04:48:43.122Z,76.84
2019-03-09T04:51:14.979Z,77.37
2019-03-09T04:53:46.780Z,76.72
2019-03-09T04:56:18.524Z,76.54
2019-03-09T04:58:50.334Z,77.39
2019-03-09T05:01:22.089Z,76.85
2019-03-09T05:04:43.590Z,76.33
2019-03-09T05:07:35.642Z,76.23
2019-03-09T05:10:18.533Z,77.21
2019-03-09T05:12:52.951Z,76.09
2019-03-09T05:15:24.720Z,75.61
2019-03-09T05:17:56.449Z,75.94
2019-03-09T05:20:28.359Z,77.49
2019-03-09T05:23:00.092Z,77.95
2019-03-09T05:25:32.028Z,78.87
2019-03-09T05:28:03.856Z,79.41
2019-03-09T05:30:42.145Z,79.08
2019-03-09T05:33:13.971Z,79.34
2019-03-09T05:35:45.860Z,79.70
2019-03-09T05:38:17.583Z,80.39
2019-03-09T05:40:49.663Z,81.21
2019-03-09T05:43:21.404Z,81.49
2019-03-09T05:45:53.460Z,82.50
2019-03-09T05:48:25.275Z,83.05
2019-03-09T05:50:57.023Z,83.65
2019-03-09T05:53:28.755Z,83.77
2019-03-09T05:56:00.572Z,85.67
2019-03-09T05:58:32.321Z,86.65
2019-03-09T06:01:04.245Z,87.37
2019-03-09T06:03:35.989Z,87.86
2019-03-09T06:06:19.686Z,88.14
2019-03-09T06:08:52.280Z,89.05
2019-03-09T06:11:24.124Z,89.05
2019-03-09T06:13:55.932Z,89.26
2019-03-09T06:16:27.671Z,89.78
2019-03-09T06:18:59.410Z,90.93
2019-03-09T06:21:31.160Z,91.69
2019-03-09T06:24:02.924Z,91.18
2019-03-09T06:26:34.764Z,91.61
2019-03-09T06:29:06.752Z,92.86
2019-03-09T06:31:38.570Z,92.64
2019-03-09T06:34:10.997Z,92.55
2019-03-09T06:37:12.405Z,92.99
2019-03-09T06:39:48.039Z,92.79
2019-03-09T06:42:48.210Z,92.22
2019-03-09T06:45:20.661Z,91.63
2019-03-09T06:47:52.644Z,92.27
2019-03-09T06:50:24.378Z,92.07
2019-03-09T06:52:56.429Z,90.75
2019-03-09T06:55:28.266Z,91.71
2019-03-09T06:58:00.148Z,90.86
2019-03-09T07:00:38.897Z,90.21
2019-03-09T07:03:12.355Z,89.40
2019-03-09T07:05:44.410Z,89.52
2019-03-09T07:08:16.306Z,88.72
2019-03-09T07:10:48.251Z,89.47
2019-03-09T07:13:20.344Z,89.32
2019-03-09T07:15:52.207Z,89.47
2019-03-09T07:18:27.874Z,88.11
2019-03-09T07:20:59.750Z,87.99
2019-03-09T07:23:31.821Z,88.18
2019-03-09T07:26:04.084Z,88.58
2019-03-09T07:28:35.875Z,87.79
2019-03-09T07:31:07.745Z,88.49
2019-03-09T07:33:39.506Z,89.31
2019-03-09T07:36:11.548Z,89.17
2019-03-09T07:38:43.655Z,89.78
2019-03-09T07:41:15.454Z,89.81
2019-03-09T07:43:47.277Z,90.46
2019-03-09T07:46:19.273Z,90.73
2019-03-09T07:48:51.030Z,90.80
2019-03-09T07:51:22.823Z,91.39
2019-03-09T07:53:54.831Z,91.22
2019-03-09T07:56:26.572Z,92.09
2019-03-09T07:58:58.314Z,92.12
2019-03-09T08:01:30.151Z,91.30
2019-03-09T08:04:01.892Z,91.88
2019-03-09T08:06:33.858Z,91.70
2019-03-09T08:09:06.982Z,92.47
2019-03-09T08:11:38.876Z,91.47
2019-03-09T08:14:11.363Z,91.22
2019-03-09T08:16:43.173Z,91.00
2019-03-09T08:19:15.002Z,90.71
2019-03-09T08:21:46.897Z,91.20
2019-03-09T08:24:18.978Z,91.64
2019-03-09T08:26:50.877Z,91.64
2019-03-09T08:29:22.624Z,92.43
2019-03-09T08:31:54.356Z,92.26
2019-03-09T08:34:26.091Z,92.92
2019-03-09T08:36:57.900Z,91.98
2019-03-09T08:39:29.719Z,91.80
2019-03-09T08:42:01.482Z,91.94
2019-03-09T08:44:33.210Z,91.37
2019-03-09T08:47:05.091Z,92.33
2019-03-09T08:49:37.171Z,91.68
2019-03-09T08:52:08.979Z,92.04
2019-03-09T08:54:40.824Z,91.69
2019-03-09T08:57:12.836Z,91.73
2019-03-09T08:59:44.581Z,92.71
2019-03-09T09:02:16.316Z,92.30
2019-03-09T09:04:48.138Z,91.79
2019-03-09T09:07:20.265Z,91.13
2019-03-09T09:09:52.023Z,90.78
2019-03-09T09:12:23.738Z,91.43
2019-03-09T09:14:55.475Z,90.04
2019-03-09T09:17:27.278Z,89.62
2019-03-09T09:19:59.015Z,89.64
2019-03-09T09:22:30.828Z,89.15
2019-03-09T09:25:04.100Z,89.01
2019-03-09T09:27:35.913Z,88.74
2019-03-09T09:30:12.327Z,87.97
2019-03-09T09:32:44.128Z,87.99
2019-03-09T09:35:16.456Z,87.11
2019-03-09T09:37:49.351Z,87.10
2019-03-09T09:40:22.540Z,87.24
2019-03-09T09:42:54.413Z,86.80
2019-03-09T09:45:26.319Z,85.64
2019-03-09T09:47:58.571Z,86.36
2019-03-09T09:50:30.471Z,86.82
2019-03-09T09:53:02.768Z,86.37
2019-03-09T09:55:34.581Z,86.52
2019-03-09T09:58:06.374Z,86.21
2019-03-09T10:00:38.118Z,85.47
2019-03-09T10:03:09.853Z,85.95
2019-03-09T10:05:41.592Z,85.31
2019-03-09T10:08:13.404Z,85.43
2019-03-09T10:10:45.134Z,85.38
2019-03-09T10:13:16.861Z,84.62
2019-03-09T10:15:48.592Z,84.01
2019-03-09T10:18:20.395Z,84.05
2019-03-09T10:20:52.203Z,82.67
2019-03-09T10:23:24.001Z,82.38
2019-03-09T10:25:55.831Z,82.63
2019-03-09T10:28:27.558Z,81.20
2019-03-09T10:30:59.287Z,79.62
2019-03-09T10:33:31.057Z,79.30
2019-03-09T10:36:02.795Z,78.80
2019-03-09T10:38:34.536Z,78.74
2019-03-09T10:41:06.423Z,78.86
2019-03-09T10:43:39.196Z,79.42
2019-03-09T10:46:11.482Z,79.05
2019-03-09T10:48:43.465Z,78.09
2019-03-09T10:51:15.277Z,78.70
2019-03-09T10:53:47.073Z,78.85
2019-03-09T10:56:18.811Z,78.33
2019-03-09T10:58:50.541Z,77.12
2019-03-09T11:01:22.609Z,77.91
2019-03-09T11:03:54.341Z,76.55
2019-03-09T11:06:26.154Z,76.52
2019-03-09T11:08:58.026Z,77.38
2019-03-09T11:11:29.843Z,76.85
2019-03-09T11:14:01.560Z,76.63
2019-03-09T11:16:34.603Z,77.79
2019-03-09T11:19:06.405Z,78.64
2019-03-09T11:21:38.145Z,77.84
2019-03-09T11:24:10.978Z,78.18
2019-03-09T11:26:42.805Z,77.80
2019-03-09T11:29:15.774Z,77.75
2019-03-09T11:31:47.523Z,78.72
2019-03-09T11:34:19.255Z,78.13
2019-03-09T11:36:51.069Z,78.45
2019-03-09T11:39:22.803Z,77.95
2019-03-09T11:41:54.628Z,78.67
2019-03-09T11:44:26.432Z,78.22
2019-03-09T11:46:58.182Z,77.70
2019-03-09T11:49:29.895Z,77.12
2019-03-09T11:52:01.642Z,77.57
2019-03-09T11:54:33.460Z,77.21
2019-03-09T11:57:05.286Z,77.28
2019-03-09T11:59:37.004Z,77.52
2019-03-09T12:02:08.854Z,78.69
2019-03-09T12:04:46.859Z,80.22
2019-03-09T12:07:14.409Z,80.66
2019-03-09T12:09:46.150Z,81.45
2019-03-09T12:12:17.998Z,84.08
2019-03-09T12:14:49.761Z,83.83
2019-03-09T12:17:21.622Z,81.71
2019-03-09T12:19:53.443Z,82.01
2019-03-09T12:22:25.223Z,82.03
2019-03-09T12:24:57.080Z,83.43
2019-03-09T12:27:28.930Z,83.35
2019-03-09T12:30:00.757Z,82.61
2019-03-09T12:32:33.935Z,81.92
2019-03-09T12:35:06.302Z,82.85
2019-03-09T12:37:38.480Z,82.12
2019-03-09T12:40:14.659Z,81.74
2019-03-09T12:42:46.637Z,82.26
2019-03-09T12:45:18.618Z,82.74
2019-03-09T12:47:50.520Z,81.10
2019-03-09T12:50:22.553Z,81.35
2019-03-09T12:52:54.402Z,80.71
2019-03-09T12:55:26.329Z,80.26
2019-03-09T12:57:58.363Z,79.88
2019-03-09T13:00:30.255Z,79.85
2019-03-09T13:03:02.154Z,79.93
2019-03-09T13:05:34.020Z,78.86
2019-03-09T13:08:05.931Z,79.15
2019-03-09T13:10:37.904Z,79.26
2019-03-09T13:13:10.098Z,79.44
2019-03-09T13:15:41.995Z,78.12
2019-03-09T13:18:14.818Z,79.06
2019-03-09T13:20:46.638Z,77.73
2019-03-09T13:23:18.425Z,77.15
2019-03-09T13:25:50.268Z,77.19
2019-03-09T13:28:22.113Z,76.88
2019-03-09T13:30:53.941Z,77.29
2019-03-09T13:33:26.096Z,77.16
2019-03-09T13:35:58.041Z,77.68
2019-03-09T13:38:29.820Z,77.63
2019-03-09T13:41:01.655Z,77.31
2019-03-09T13:43:33.439Z,77.41
2019-03-09T13:46:05.263Z,77.53
2019-03-09T13:48:37.278Z,77.42
2019-03-09T13:51:09.285Z,77.48
2019-03-09T13:53:41.146Z,78.10
2019-03-09T13:56:12.902Z,77.78
2019-03-09T13:58:44.666Z,77.30
2019-03-09T14:01:16.426Z,77.13
2019-03-09T14:03:48.193Z,76.84
2019-03-09T14:06:20.020Z,77.52
2019-03-09T14:08:51.920Z,77.28
2019-03-09T14:11:23.700Z,76.31
2019-03-09T14:13:55.483Z,76.36
2019-03-09T14:16:27.332Z,76.22
2019-03-09T14:18:59.166Z,75.05
2019-03-09T14:21:31.075Z,74.97
2019-03-09T14:24:02.811Z,75.15
2019-03-09T14:26:34.549Z,75.28
2019-03-09T14:29:06.453Z,75.77
2019-03-09T14:31:38.328Z,75.66
2019-03-09T14:34:10.068Z,76.86
2019-03-09T14:36:41.819Z,77.44
2019-03-09T14:39:14.544Z,78.24
2019-03-09T14:41:46.277Z,79.16
2019-03-09T14:44:18.023Z,80.23
2019-03-09T14:46:49.827Z,80.66
2019-03-09T14:49:21.565Z,81.84
2019-03-09T14:51:53.624Z,82.80
2019-03-09T14:54:25.451Z,83.19
2019-03-09T14:56:57.258Z,84.95
2019-03-09T14:59:29.972Z,86.08
2019-03-09T15:02:01.716Z,87.10
2019-03-09T15:04:33.621Z,86.09
2019-03-09T15:07:08.934Z,87.06
2019-03-09T15:09:40.825Z,86.52
2019-03-09T15:12:12.703Z,86.41
2019-03-09T15:14:44.516Z,86.64
2019-03-09T15:17:16.397Z,85.98
2019-03-09T15:19:48.466Z,86.48
2019-03-09T15:22:20.263Z,86.78
2019-03-09T15:24:52.089Z,87.25
2019-03-09T15:27:23.920Z,87.30
2019-03-09T15:29:56.003Z,86.63
2019-03-09T15:32:27.861Z,86.39
2019-03-09T15:35:00.590Z,86.91
2019-03-09T15:37:32.571Z,86.79
2019-03-09T15:40:04.494Z,85.91
2019-03-09T15:42:36.362Z,86.67
2019-03-09T15:45:09.091Z,85.61
2019-03-09T15:47:40.977Z,85.96
2019-03-09T15:50:13.336Z,85.69
2019-03-09T15:52:45.472Z,85.35
2019-03-09T15:55:17.616Z,84.12
2019-03-09T15:57:49.413Z,85.29
2019-03-09T16:00:21.387Z,84.07
2019-03-09T16:02:53.192Z,83.16
2019-03-09T16:05:25.006Z,82.99
2019-03-09T16:07:56.816Z,83.23
2019-03-09T16:10:28.639Z,82.67
2019-03-09T16:13:00.452Z,82.65
2019-03-09T16:15:32.340Z,82.23
2019-03-09T16:18:04.551Z,81.75
2019-03-09T16:20:36.431Z,81.96
2019-03-09T16:23:09.282Z,82.90
2019-03-09T16:25:41.051Z,82.68
2019-03-09T16:28:12.864Z,82.40
2019-03-09T16:30:44.676Z,81.57
2019-03-09T16:33:16.586Z,82.10
2019-03-09T16:35:48.469Z,81.66
2019-03-09T16:38:20.192Z,82.01
2019-03-09T16:40:52.084Z,81.92
2019-03-09T16:43:24.176Z,81.27
2019-03-09T16:45:55.930Z,80.19
2019-03-09T16:48:27.664Z,80.62
2019-03-09T16:50:59.476Z,80.94
2019-03-09T16:53:31.224Z,79.77
2019-03-09T16:56:03.138Z,80.15
2019-03-09T16:58:35.046Z,80.69
2019-03-09T17:01:06.878Z,80.46
2019-03-09T17:03:38.615Z,80.64
2019-03-09T17:06:11.343Z,79.95
2019-03-09T17:08:43.138Z,80.12
2019-03-09T17:11:15.135Z,79.97
2019-03-09T17:13:46.863Z,79.76
2019-03-09T17:16:18.687Z,80.45
2019-03-09T17:18:50.498Z,79.76
2019-03-09T17:21:22.243Z,78.81
2019-03-09T17:23:54.226Z,78.76
2019-03-09T17:26:26.055Z,78.50
2019-03-09T17:28:57.780Z,78.43
2019-03-09T17:31:29.531Z,78.80
2019-03-09T17:34:01.669Z,78.62
2019-03-09T17:36:33.526Z,77.63
2019-03-09T17:39:05.920Z,76.17
2019-03-09T17:41:39.283Z,76.21
2019-03-09T17:44:11.596Z,76.11
2019-03-09T17:46:43.336Z,75.68
2019-03-09T17:49:15.103Z,76.08
2019-03-09T17:51:46.922Z,75.23
2019-03-09T17:54:18.655Z,75.73
2019-03-09T17:56:50.391Z,75.81
2019-03-09T17:59:23.098Z,75.32
2019-03-09T18:01:55.168Z,75.79
2019-03-09T18:04:26.903Z,75.07
2019-03-09T18:06:58.652Z,75.21
2019-03-09T18:09:30.406Z,75.62
2019-03-09T18:12:02.219Z,74.31
2019-03-09T18:14:34.087Z,74.80
2019-03-09T18:17:05.907Z,74.83
2019-03-09T18:19:37.891Z,74.74
2019-03-09T18:22:10.983Z,74.60
2019-03-09T18:24:42.786Z,75.12
2019-03-09T18:27:14.544Z,73.75
2019-03-09T18:29:46.272Z,73.21
2019-03-09T18:32:18.025Z,73.13
2019-03-09T18:34:50.029Z,72.39
2019-03-09T18:37:21.778Z,71.80
2019-03-09T18:39:53.508Z,72.15
2019-03-09T18:42:25.579Z,71.72
2019-03-09T18:44:57.396Z,72.42
2019-03-09T18:47:29.144Z,72.01
2019-03-09T18:50:01.545Z,71.62
2019-03-09T18:52:33.378Z,71.12
2019-03-09T18:55:05.387Z,71.21
2019-03-09T18:57:37.217Z,71.31
2019-03-09T19:00:11.338Z,71.49
2019-03-09T19:02:43.475Z,70.77
2019-03-09T19:05:15.384Z,71.12
2019-03-09T19:07:47.283Z,70.93
2019-03-09T19:10:19.083Z,71.60
2019-03-09T19:12:51.224Z,71.68
2019-03-09T19:15:24.203Z,72.37
2019-03-09T19:17:56.022Z,72.55
2019-03-09T19:20:27.830Z,72.33
2019-03-09T19:22:59.575Z,72.80
2019-03-09T19:25:32.565Z,72.85
2019-03-09T19:28:04.635Z,72.96
2019-03-09T19:30:36.454Z,72.83
2019-03-09T19:33:08.263Z,73.07
2019-03-09T19:35:40.077Z,72.78
2019-03-09T19:38:11.809Z,71.98
2019-03-09T19:40:43.553Z,71.08
2019-03-09T19:43:15.821Z,71.42
2019-03-09T19:45:47.542Z,70.80
2019-03-09T19:48:20.124Z,71.08
2019-03-09T19:50:52.149Z,72.00
2019-03-09T19:53:23.905Z,70.92
2019-03-09T19:55:55.708Z,70.78
2019-03-09T19:58:27.783Z,71.31
2019-03-09T20:00:59.615Z,71.44
2019-03-09T20:03:31.409Z,71.71
2019-03-09T20:06:03.372Z,71.07
2019-03-09T20:08:35.118Z,71.48
2019-03-09T20:11:07.275Z,71.84
2019-03-09T20:13:39.014Z,71.56
2019-03-09T20:16:10.940Z,72.50
2019-03-09T20:18:42.679Z,71.88
2019-03-09T20:21:14.577Z,71.83
2019-03-09T20:23:46.591Z,72.32
2019-03-09T20:26:18.318Z,71.89
2019-03-09T20:28:50.381Z,72.16
2019-03-09T20:31:22.181Z,72.50
2019-03-09T20:33:53.927Z,72.22
2019-03-09T20:36:25.634Z,72.50
2019-03-09T20:38:57.366Z,72.62
2019-03-09T20:41:29.341Z,72.50
2019-03-09T20:44:02.043Z,72.70
2019-03-09T20:46:41.612Z,72.78
2019-03-09T20:49:07.613Z,73.53
2019-03-09T20:51:39.341Z,73.45
2019-03-09T20:54:11.583Z,73.09
2019-03-09T20:56:43.324Z,73.04
2019-03-09T20:59:15.055Z,73.29
2019-03-09T21:01:47.033Z,73.37
2019-03-09T21:04:18.804Z,73.97
2019-03-09T21:06:50.530Z,73.88
2019-03-09T21:09:22.266Z,73.11
2019-03-09T21:11:54.004Z,73.48
2019-03-09T21:14:25.729Z,73.23
2019-03-09T21:16:59.609Z,73.24
2019-03-09T21:19:30.947Z,73.00
2019-03-09T21:22:02.733Z,72.67
2019-03-09T21:24:34.515Z,72.54
2019-03-09T21:27:06.412Z,72.40
2019-03-09T21:29:38.142Z,72.50
2019-03-09T21:32:09.875Z,72.49
2019-03-09T21:34:41.618Z,72.65
2019-03-09T21:37:13.420Z,72.48
2019-03-09T21:39:45.151Z,72.71
2019-03-09T21:42:16.877Z,72.54
2019-03-09T21:44:48.620Z,72.61
2019-03-09T21:47:20.337Z,72.71
2019-03-09T21:49:52.075Z,72.99
2019-03-09T21:52:24.066Z,73.07
2019-03-09T21:54:56.474Z,72.88
2019-03-09T21:57:28.224Z,73.59
2019-03-09T21:59:59.961Z,73.30
2019-03-09T22:02:31.708Z,73.57
2019-03-09T22:05:03.855Z,73.55
2019-03-09T22:07:35.972Z,73.16
2019-03-09T22:10:08.435Z,73.06
2019-03-09T22:12:40.158Z,73.01
2019-03-09T22:15:12.241Z,73.47
2019-03-09T22:17:44.283Z,73.11
2019-03-09T22:20:16.180Z,73.00
2019-03-09T22:22:48.081Z,72.82
2019-03-09T22:25:20.024Z,73.04
2019-03-09T22:27:51.819Z,72.29
2019-03-09T22:30:23.748Z,72.49
2019-03-09T22:32:55.540Z,72.47
2019-03-09T22:35:27.467Z,72.60
2019-03-09T22:37:59.342Z,72.23
2019-03-09T22:40:31.371Z,72.71
2019-03-09T22:43:03.106Z,71.87
2019-03-09T22:45:34.924Z,72.41
2019-03-09T22:48:06.886Z,72.32
2019-03-09T22:50:38.874Z,72.19
2019-03-09T22:53:11.341Z,72.21
2019-03-09T22:55:43.184Z,72.51
2019-03-09T22:58:14.996Z,72.03
2019-03-09T23:00:47.016Z,71.85
2019-03-09T23:03:19.472Z,72.04
2019-03-09T23:05:52.340Z,71.96
2019-03-09T23:08:24.142Z,71.87
2019-03-09T23:10:55.872Z,71.49
2019-03-09T23:13:27.663Z,71.55
2019-03-09T23:15:59.407Z,71.28
2019-03-09T23:18:31.399Z,71.23
2019-03-09T23:21:03.181Z,71.40
2019-03-09T23:23:34.950Z,71.99
2019-03-09T23:26:06.835Z,71.57
2019-03-09T23:28:47.412Z,71.05
2019-03-09T23:31:20.144Z,71.08
2019-03-09T23:33:51.942Z,71.52
2019-03-09T23:36:23.937Z,71.41
2019-03-09T23:38:55.800Z,71.69
2019-03-09T23:41:27.677Z,71.83
2019-03-09T23:43:59.417Z,71.46
2019-03-09T23:46:31.567Z,71.70
2019-03-09T23:49:03.443Z,71.37
2019-03-09T23:51:35.218Z,71.52
2019-03-09T23:54:07.083Z,71.96
2019-03-09T23:56:38.905Z,71.70
2019-03-09T23:59:11.666Z,72.36
